sensor_id;sensor_type;location;lat;lon;timestamp;temperature;humidity
64499;SHT31;51087;55.718;21.122;2022-08-25T00:00:32;20.65;93.93
64499;SHT31;51087;55.718;21.122;2022-08-25T00:02:58;20.68;93.92
64499;SHT31;51087;55.718;21.122;2022-08-25T00:05:26;20.63;94.07
64499;SHT31;51087;55.718;21.122;2022-08-25T00:07:52;20.63;94.14
64499;SHT31;51087;55.718;21.122;2022-08-25T00:10:17;20.61;94.08
64499;SHT31;51087;55.718;21.122;2022-08-25T00:12:44;20.59;94.07
64499;SHT31;51087;55.718;21.122;2022-08-25T00:15:10;20.58;94.13
64499;SHT31;51087;55.718;21.122;2022-08-25T00:17:36;20.55;94.23
64499;SHT31;51087;55.718;21.122;2022-08-25T00:20:03;20.57;94.26
64499;SHT31;51087;55.718;21.122;2022-08-25T00:22:29;20.55;94.27
64499;SHT31;51087;55.718;21.122;2022-08-25T00:24:54;20.52;94.21
64499;SHT31;51087;55.718;21.122;2022-08-25T00:27:20;20.55;94.23
64499;SHT31;51087;55.718;21.122;2022-08-25T00:29:46;20.47;94.37
64499;SHT31;51087;55.718;21.122;2022-08-25T00:32:11;20.45;94.40
64499;SHT31;51087;55.718;21.122;2022-08-25T00:34:37;20.44;94.37
64499;SHT31;51087;55.718;21.122;2022-08-25T00:37:06;20.41;94.45
64499;SHT31;51087;55.718;21.122;2022-08-25T00:39:33;20.40;94.53
64499;SHT31;51087;55.718;21.122;2022-08-25T00:41:59;20.36;94.52
64499;SHT31;51087;55.718;21.122;2022-08-25T00:44:27;20.38;94.44
64499;SHT31;51087;55.718;21.122;2022-08-25T00:46:56;20.31;94.38
64499;SHT31;51087;55.718;21.122;2022-08-25T00:52:19;20.31;94.29
64499;SHT31;51087;55.718;21.122;2022-08-25T00:57:13;20.27;94.16
64499;SHT31;51087;55.718;21.122;2022-08-25T00:59:40;20.21;94.18
64499;SHT31;51087;55.718;21.122;2022-08-25T01:02:06;20.21;94.20
64499;SHT31;51087;55.718;21.122;2022-08-25T01:04:32;20.16;94.19
64499;SHT31;51087;55.718;21.122;2022-08-25T01:06:59;20.16;94.29
64499;SHT31;51087;55.718;21.122;2022-08-25T01:09:25;20.14;94.32
64499;SHT31;51087;55.718;21.122;2022-08-25T01:11:52;20.14;94.20
64499;SHT31;51087;55.718;21.122;2022-08-25T01:14:19;20.13;94.12
64499;SHT31;51087;55.718;21.122;2022-08-25T01:16:45;20.10;94.13
64499;SHT31;51087;55.718;21.122;2022-08-25T01:19:13;20.07;94.22
64499;SHT31;51087;55.718;21.122;2022-08-25T01:21:42;20.06;94.30
64499;SHT31;51087;55.718;21.122;2022-08-25T01:24:21;20.05;94.23
64499;SHT31;51087;55.718;21.122;2022-08-25T01:26:48;20.03;94.33
64499;SHT31;51087;55.718;21.122;2022-08-25T01:29:14;19.96;94.51
64499;SHT31;51087;55.718;21.122;2022-08-25T01:31:46;19.93;94.42
64499;SHT31;51087;55.718;21.122;2022-08-25T01:34:13;19.90;94.57
64499;SHT31;51087;55.718;21.122;2022-08-25T01:36:42;19.90;94.52
64499;SHT31;51087;55.718;21.122;2022-08-25T01:39:08;19.93;94.44
64499;SHT31;51087;55.718;21.122;2022-08-25T01:41:44;19.89;94.45
64499;SHT31;51087;55.718;21.122;2022-08-25T01:44:15;19.90;94.50
64499;SHT31;51087;55.718;21.122;2022-08-25T01:46:41;19.86;94.48
64499;SHT31;51087;55.718;21.122;2022-08-25T01:49:06;19.79;94.65
64499;SHT31;51087;55.718;21.122;2022-08-25T01:51:38;19.79;94.74
64499;SHT31;51087;55.718;21.122;2022-08-25T01:54:06;19.73;94.80
64499;SHT31;51087;55.718;21.122;2022-08-25T01:56:32;19.73;94.86
64499;SHT31;51087;55.718;21.122;2022-08-25T01:58:57;19.69;94.98
64499;SHT31;51087;55.718;21.122;2022-08-25T02:01:23;19.75;94.91
64499;SHT31;51087;55.718;21.122;2022-08-25T02:03:51;19.75;94.82
64499;SHT31;51087;55.718;21.122;2022-08-25T02:06:21;19.71;94.84
64499;SHT31;51087;55.718;21.122;2022-08-25T02:08:58;19.69;94.86
64499;SHT31;51087;55.718;21.122;2022-08-25T02:11:25;19.72;95.04
64499;SHT31;51087;55.718;21.122;2022-08-25T02:13:51;19.68;94.91
64499;SHT31;51087;55.718;21.122;2022-08-25T02:16:22;19.66;94.94
64499;SHT31;51087;55.718;21.122;2022-08-25T02:18:49;19.63;94.95
64499;SHT31;51087;55.718;21.122;2022-08-25T02:21:14;19.65;94.96
64499;SHT31;51087;55.718;21.122;2022-08-25T02:23:41;19.62;95.04
64499;SHT31;51087;55.718;21.122;2022-08-25T02:26:07;19.61;95.05
64499;SHT31;51087;55.718;21.122;2022-08-25T02:28:34;19.62;94.94
64499;SHT31;51087;55.718;21.122;2022-08-25T02:30:59;19.57;95.06
64499;SHT31;51087;55.718;21.122;2022-08-25T02:33:25;19.51;95.28
64499;SHT31;51087;55.718;21.122;2022-08-25T02:35:51;19.47;95.50
64499;SHT31;51087;55.718;21.122;2022-08-25T02:38:16;19.48;95.64
64499;SHT31;51087;55.718;21.122;2022-08-25T02:40:42;19.47;95.56
64499;SHT31;51087;55.718;21.122;2022-08-25T02:43:08;19.41;95.84
64499;SHT31;51087;55.718;21.122;2022-08-25T02:45:34;19.39;95.96
64499;SHT31;51087;55.718;21.122;2022-08-25T02:48:00;19.30;96.26
64499;SHT31;51087;55.718;21.122;2022-08-25T02:50:25;19.31;96.45
64499;SHT31;51087;55.718;21.122;2022-08-25T02:52:51;19.28;96.44
64499;SHT31;51087;55.718;21.122;2022-08-25T02:55:17;19.32;96.47
64499;SHT31;51087;55.718;21.122;2022-08-25T02:57:43;19.30;96.60
64499;SHT31;51087;55.718;21.122;2022-08-25T03:00:11;19.31;96.59
64499;SHT31;51087;55.718;21.122;2022-08-25T03:02:37;19.30;96.58
64499;SHT31;51087;55.718;21.122;2022-08-25T03:05:03;19.28;96.82
64499;SHT31;51087;55.718;21.122;2022-08-25T03:07:29;19.24;96.94
64499;SHT31;51087;55.718;21.122;2022-08-25T03:09:55;19.30;96.89
64499;SHT31;51087;55.718;21.122;2022-08-25T03:12:20;19.25;97.01
64499;SHT31;51087;55.718;21.122;2022-08-25T03:14:47;19.25;97.13
64499;SHT31;51087;55.718;21.122;2022-08-25T03:17:13;19.23;97.20
64499;SHT31;51087;55.718;21.122;2022-08-25T03:19:38;19.24;97.24
64499;SHT31;51087;55.718;21.122;2022-08-25T03:22:04;19.31;97.20
64499;SHT31;51087;55.718;21.122;2022-08-25T03:24:29;19.31;97.08
64499;SHT31;51087;55.718;21.122;2022-08-25T03:26:55;19.31;97.20
64499;SHT31;51087;55.718;21.122;2022-08-25T03:29:23;19.36;97.17
64499;SHT31;51087;55.718;21.122;2022-08-25T03:31:50;19.35;97.14
64499;SHT31;51087;55.718;21.122;2022-08-25T03:34:17;19.38;97.19
64499;SHT31;51087;55.718;21.122;2022-08-25T03:36:47;19.38;97.21
64499;SHT31;51087;55.718;21.122;2022-08-25T03:39:13;19.41;97.19
64499;SHT31;51087;55.718;21.122;2022-08-25T03:41:40;19.43;97.18
64499;SHT31;51087;55.718;21.122;2022-08-25T03:44:06;19.47;97.08
64499;SHT31;51087;55.718;21.122;2022-08-25T03:46:38;19.51;96.89
64499;SHT31;51087;55.718;21.122;2022-08-25T03:49:07;19.52;96.87
64499;SHT31;51087;55.718;21.122;2022-08-25T03:51:45;19.54;96.78
64499;SHT31;51087;55.718;21.122;2022-08-25T03:54:19;19.58;96.60
64499;SHT31;51087;55.718;21.122;2022-08-25T03:56:45;19.61;96.55
64499;SHT31;51087;55.718;21.122;2022-08-25T03:59:11;19.59;96.67
64499;SHT31;51087;55.718;21.122;2022-08-25T04:01:38;19.59;96.65
64499;SHT31;51087;55.718;21.122;2022-08-25T04:04:05;19.61;96.68
64499;SHT31;51087;55.718;21.122;2022-08-25T04:06:31;19.62;96.75
64499;SHT31;51087;55.718;21.122;2022-08-25T04:08:57;19.69;96.52
64499;SHT31;51087;55.718;21.122;2022-08-25T04:11:23;19.71;96.35
64499;SHT31;51087;55.718;21.122;2022-08-25T04:13:50;19.72;96.35
64499;SHT31;51087;55.718;21.122;2022-08-25T04:16:21;19.72;96.29
64499;SHT31;51087;55.718;21.122;2022-08-25T04:18:48;19.69;96.33
64499;SHT31;51087;55.718;21.122;2022-08-25T04:21:15;19.69;96.45
64499;SHT31;51087;55.718;21.122;2022-08-25T04:23:43;19.72;96.48
64499;SHT31;51087;55.718;21.122;2022-08-25T04:26:11;19.72;96.47
64499;SHT31;51087;55.718;21.122;2022-08-25T04:28:37;19.72;96.45
64499;SHT31;51087;55.718;21.122;2022-08-25T04:31:11;19.73;96.41
64499;SHT31;51087;55.718;21.122;2022-08-25T04:33:37;19.75;96.39
64499;SHT31;51087;55.718;21.122;2022-08-25T04:36:04;19.73;96.48
64499;SHT31;51087;55.718;21.122;2022-08-25T04:38:31;19.75;96.50
64499;SHT31;51087;55.718;21.122;2022-08-25T04:40:57;19.75;96.39
64499;SHT31;51087;55.718;21.122;2022-08-25T04:43:23;19.78;96.33
64499;SHT31;51087;55.718;21.122;2022-08-25T04:45:48;19.81;96.31
64499;SHT31;51087;55.718;21.122;2022-08-25T04:48:14;19.81;96.30
64499;SHT31;51087;55.718;21.122;2022-08-25T04:50:39;19.81;96.20
64499;SHT31;51087;55.718;21.122;2022-08-25T04:53:05;19.90;96.02
64499;SHT31;51087;55.718;21.122;2022-08-25T04:55:30;19.93;95.86
64499;SHT31;51087;55.718;21.122;2022-08-25T04:57:56;19.93;95.67
64499;SHT31;51087;55.718;21.122;2022-08-25T05:00:21;20.00;95.50
64499;SHT31;51087;55.718;21.122;2022-08-25T05:02:47;20.09;95.28
64499;SHT31;51087;55.718;21.122;2022-08-25T05:05:12;20.13;94.84
64499;SHT31;51087;55.718;21.122;2022-08-25T05:07:38;20.23;94.56
64499;SHT31;51087;55.718;21.122;2022-08-25T05:10:04;20.31;94.14
64499;SHT31;51087;55.718;21.122;2022-08-25T05:12:29;20.38;93.74
64499;SHT31;51087;55.718;21.122;2022-08-25T05:14:55;20.40;93.51
64499;SHT31;51087;55.718;21.122;2022-08-25T05:17:40;20.55;93.30
64499;SHT31;51087;55.718;21.122;2022-08-25T05:20:06;20.59;93.20
64499;SHT31;51087;55.718;21.122;2022-08-25T05:22:32;20.67;92.93
64499;SHT31;51087;55.718;21.122;2022-08-25T05:24:57;20.74;92.68
64499;SHT31;51087;55.718;21.122;2022-08-25T05:27:24;20.67;92.54
64499;SHT31;51087;55.718;21.122;2022-08-25T05:29:49;20.69;92.42
64499;SHT31;51087;55.718;21.122;2022-08-25T05:32:14;20.74;92.34
64499;SHT31;51087;55.718;21.122;2022-08-25T05:34:40;20.78;92.15
64499;SHT31;51087;55.718;21.122;2022-08-25T05:37:05;20.81;92.07
64499;SHT31;51087;55.718;21.122;2022-08-25T05:39:31;20.83;91.90
64499;SHT31;51087;55.718;21.122;2022-08-25T05:41:58;20.86;91.92
64499;SHT31;51087;55.718;21.122;2022-08-25T05:44:23;20.89;91.90
64499;SHT31;51087;55.718;21.122;2022-08-25T05:46:48;20.96;91.74
64499;SHT31;51087;55.718;21.122;2022-08-25T05:49:15;20.95;91.58
64499;SHT31;51087;55.718;21.122;2022-08-25T05:51:40;20.93;91.64
64499;SHT31;51087;55.718;21.122;2022-08-25T05:54:06;20.91;91.75
64499;SHT31;51087;55.718;21.122;2022-08-25T05:56:31;20.96;91.71
64499;SHT31;51087;55.718;21.122;2022-08-25T05:58:57;20.99;91.49
64499;SHT31;51087;55.718;21.122;2022-08-25T06:01:26;21.04;91.41
64499;SHT31;51087;55.718;21.122;2022-08-25T06:04:11;21.09;91.20
64499;SHT31;51087;55.718;21.122;2022-08-25T06:06:37;21.13;91.02
64499;SHT31;51087;55.718;21.122;2022-08-25T06:09:03;21.13;91.14
64499;SHT31;51087;55.718;21.122;2022-08-25T06:11:30;21.29;91.03
64499;SHT31;51087;55.718;21.122;2022-08-25T06:13:56;21.36;90.42
64499;SHT31;51087;55.718;21.122;2022-08-25T06:16:21;21.31;90.40
64499;SHT31;51087;55.718;21.122;2022-08-25T06:18:47;21.33;90.27
64499;SHT31;51087;55.718;21.122;2022-08-25T06:21:13;21.37;90.39
64499;SHT31;51087;55.718;21.122;2022-08-25T06:23:39;21.39;90.23
64499;SHT31;51087;55.718;21.122;2022-08-25T06:26:06;21.51;89.95
64499;SHT31;51087;55.718;21.122;2022-08-25T06:28:33;21.62;89.38
64499;SHT31;51087;55.718;21.122;2022-08-25T06:31:00;21.73;89.01
64499;SHT31;51087;55.718;21.122;2022-08-25T06:33:26;21.82;88.66
64499;SHT31;51087;55.718;21.122;2022-08-25T06:35:55;21.86;88.87
64499;SHT31;51087;55.718;21.122;2022-08-25T06:38:22;21.96;88.49
64499;SHT31;51087;55.718;21.122;2022-08-25T06:40:47;22.03;87.51
64499;SHT31;51087;55.718;21.122;2022-08-25T06:43:13;22.05;87.69
64499;SHT31;51087;55.718;21.122;2022-08-25T06:45:39;22.02;87.70
64499;SHT31;51087;55.718;21.122;2022-08-25T06:48:05;22.02;87.71
64499;SHT31;51087;55.718;21.122;2022-08-25T06:50:30;22.03;87.66
64499;SHT31;51087;55.718;21.122;2022-08-25T06:52:56;22.16;87.67
64499;SHT31;51087;55.718;21.122;2022-08-25T06:55:22;22.26;87.40
64499;SHT31;51087;55.718;21.122;2022-08-25T06:57:47;22.35;86.79
64499;SHT31;51087;55.718;21.122;2022-08-25T07:00:13;22.49;86.77
64499;SHT31;51087;55.718;21.122;2022-08-25T07:02:38;22.56;86.48
64499;SHT31;51087;55.718;21.122;2022-08-25T07:05:05;22.51;86.02
64499;SHT31;51087;55.718;21.122;2022-08-25T07:07:31;22.53;86.36
64499;SHT31;51087;55.718;21.122;2022-08-25T07:09:57;22.61;86.31
64499;SHT31;51087;55.718;21.122;2022-08-25T07:12:22;22.71;85.72
64499;SHT31;51087;55.718;21.122;2022-08-25T07:14:49;22.64;85.49
64499;SHT31;51087;55.718;21.122;2022-08-25T07:17:14;22.64;85.45
64499;SHT31;51087;55.718;21.122;2022-08-25T07:19:41;22.65;85.48
64499;SHT31;51087;55.718;21.122;2022-08-25T07:22:07;22.64;85.66
64499;SHT31;51087;55.718;21.122;2022-08-25T07:24:32;22.65;85.64
64499;SHT31;51087;55.718;21.122;2022-08-25T07:26:58;22.61;85.87
64499;SHT31;51087;55.718;21.122;2022-08-25T07:29:26;22.72;85.61
64499;SHT31;51087;55.718;21.122;2022-08-25T07:31:53;22.72;85.35
64499;SHT31;51087;55.718;21.122;2022-08-25T07:34:18;22.84;85.43
64499;SHT31;51087;55.718;21.122;2022-08-25T07:37:03;22.97;84.83
64499;SHT31;51087;55.718;21.122;2022-08-25T07:39:29;23.12;84.50
64499;SHT31;51087;55.718;21.122;2022-08-25T07:41:55;23.20;83.98
64499;SHT31;51087;55.718;21.122;2022-08-25T07:44:21;23.41;83.66
64499;SHT31;51087;55.718;21.122;2022-08-25T07:46:47;23.46;83.19
64499;SHT31;51087;55.718;21.122;2022-08-25T07:49:13;23.59;82.62
64499;SHT31;51087;55.718;21.122;2022-08-25T07:51:39;23.69;82.81
64499;SHT31;51087;55.718;21.122;2022-08-25T07:54:05;23.82;82.24
64499;SHT31;51087;55.718;21.122;2022-08-25T07:56:30;23.80;81.73
64499;SHT31;51087;55.718;21.122;2022-08-25T07:58:56;23.80;81.82
64499;SHT31;51087;55.718;21.122;2022-08-25T08:01:22;23.81;81.93
64499;SHT31;51087;55.718;21.122;2022-08-25T08:03:49;23.84;81.63
64499;SHT31;51087;55.718;21.122;2022-08-25T08:06:18;23.80;81.91
64499;SHT31;51087;55.718;21.122;2022-08-25T08:08:46;23.77;81.60
64499;SHT31;51087;55.718;21.122;2022-08-25T08:11:34;23.71;81.81
64499;SHT31;51087;55.718;21.122;2022-08-25T08:14:05;23.75;81.89
64499;SHT31;51087;55.718;21.122;2022-08-25T08:16:31;23.85;81.78
64499;SHT31;51087;55.718;21.122;2022-08-25T08:18:58;23.93;81.73
64499;SHT31;51087;55.718;21.122;2022-08-25T08:21:27;24.00;81.37
64499;SHT31;51087;55.718;21.122;2022-08-25T08:23:53;24.09;81.28
64499;SHT31;51087;55.718;21.122;2022-08-25T08:26:19;24.21;80.12
64499;SHT31;51087;55.718;21.122;2022-08-25T08:28:45;24.25;79.87
64499;SHT31;51087;55.718;21.122;2022-08-25T08:31:11;24.36;79.82
64499;SHT31;51087;55.718;21.122;2022-08-25T08:33:37;24.48;79.01
64499;SHT31;51087;55.718;21.122;2022-08-25T08:36:06;24.51;79.27
64499;SHT31;51087;55.718;21.122;2022-08-25T08:38:34;24.59;79.00
64499;SHT31;51087;55.718;21.122;2022-08-25T08:49:29;25.39;75.66
64499;SHT31;51087;55.718;21.122;2022-08-25T08:52:00;25.70;75.97
64499;SHT31;51087;55.718;21.122;2022-08-25T08:54:28;25.84;74.90
64499;SHT31;51087;55.718;21.122;2022-08-25T08:57:03;25.89;74.27
64499;SHT31;51087;55.718;21.122;2022-08-25T08:59:40;26.28;73.25
64499;SHT31;51087;55.718;21.122;2022-08-25T09:02:14;26.63;73.17
64499;SHT31;51087;55.718;21.122;2022-08-25T09:04:47;26.95;72.02
64499;SHT31;51087;55.718;21.122;2022-08-25T09:07:18;27.24;71.47
64499;SHT31;51087;55.718;21.122;2022-08-25T09:09:45;27.58;70.45
64499;SHT31;51087;55.718;21.122;2022-08-25T09:12:21;27.52;69.16
64499;SHT31;51087;55.718;21.122;2022-08-25T09:23:02;27.03;69.90
64499;SHT31;51087;55.718;21.122;2022-08-25T09:25:47;27.42;68.69
64499;SHT31;51087;55.718;21.122;2022-08-25T09:28:27;27.66;68.16
64499;SHT31;51087;55.718;21.122;2022-08-25T09:33:54;28.13;67.09
64499;SHT31;51087;55.718;21.122;2022-08-25T09:36:20;28.50;65.78
64499;SHT31;51087;55.718;21.122;2022-08-25T09:38:45;28.75;64.77
64499;SHT31;51087;55.718;21.122;2022-08-25T09:41:15;28.72;64.25
64499;SHT31;51087;55.718;21.122;2022-08-25T09:43:42;28.89;64.83
64499;SHT31;51087;55.718;21.122;2022-08-25T09:46:15;29.16;63.96
64499;SHT31;51087;55.718;21.122;2022-08-25T09:48:56;29.68;62.20
64499;SHT31;51087;55.718;21.122;2022-08-25T09:51:32;29.77;61.42
64499;SHT31;51087;55.718;21.122;2022-08-25T09:54:02;29.91;61.98
64499;SHT31;51087;55.718;21.122;2022-08-25T09:56:31;30.16;61.36
64499;SHT31;51087;55.718;21.122;2022-08-25T09:59:36;30.43;59.98
64499;SHT31;51087;55.718;21.122;2022-08-25T10:06:52;31.26;58.80
64499;SHT31;51087;55.718;21.122;2022-08-25T10:09:26;30.83;58.37
64499;SHT31;51087;55.718;21.122;2022-08-25T10:11:54;30.84;58.74
64499;SHT31;51087;55.718;21.122;2022-08-25T10:14:32;31.26;58.43
64499;SHT31;51087;55.718;21.122;2022-08-25T10:19:38;31.94;55.73
64499;SHT31;51087;55.718;21.122;2022-08-25T10:22:07;32.45;54.56
64499;SHT31;51087;55.718;21.122;2022-08-25T10:24:35;32.49;54.82
64499;SHT31;51087;55.718;21.122;2022-08-25T10:27:21;33.00;54.08
64499;SHT31;51087;55.718;21.122;2022-08-25T10:32:47;33.63;52.18
64499;SHT31;51087;55.718;21.122;2022-08-25T10:35:47;34.20;50.92
64499;SHT31;51087;55.718;21.122;2022-08-25T10:46:38;34.65;48.76
64499;SHT31;51087;55.718;21.122;2022-08-25T10:51:52;33.99;50.06
64499;SHT31;51087;55.718;21.122;2022-08-25T10:57:30;35.08;47.59
64499;SHT31;51087;55.718;21.122;2022-08-25T11:08:07;37.22;44.42
64499;SHT31;51087;55.718;21.122;2022-08-25T11:10:39;37.46;43.42
64499;SHT31;51087;55.718;21.122;2022-08-25T11:13:12;37.57;43.13
64499;SHT31;51087;55.718;21.122;2022-08-25T11:15:59;37.90;42.32
64499;SHT31;51087;55.718;21.122;2022-08-25T11:18:26;38.17;42.58
64499;SHT31;51087;55.718;21.122;2022-08-25T11:21:05;38.48;41.43
64499;SHT31;51087;55.718;21.122;2022-08-25T11:23:40;38.51;41.33
64499;SHT31;51087;55.718;21.122;2022-08-25T11:26:13;38.30;41.75
64499;SHT31;51087;55.718;21.122;2022-08-25T11:28:53;38.92;40.83
64499;SHT31;51087;55.718;21.122;2022-08-25T11:31:22;39.10;40.42
64499;SHT31;51087;55.718;21.122;2022-08-25T11:33:49;39.46;40.23
64499;SHT31;51087;55.718;21.122;2022-08-25T11:36:31;39.27;39.57
64499;SHT31;51087;55.718;21.122;2022-08-25T11:52:53;38.68;40.76
64499;SHT31;51087;55.718;21.122;2022-08-25T11:55:44;37.64;41.84
64499;SHT31;51087;55.718;21.122;2022-08-25T12:00:55;36.09;45.01
64499;SHT31;51087;55.718;21.122;2022-08-25T12:06:19;36.40;44.90
64499;SHT31;51087;55.718;21.122;2022-08-25T12:17:04;40.04;38.32
64499;SHT31;51087;55.718;21.122;2022-08-25T12:38:06;39.49;39.28
64499;SHT31;51087;55.718;21.122;2022-08-25T12:43:23;37.94;41.27
64499;SHT31;51087;55.718;21.122;2022-08-25T12:46:32;36.35;44.26
64499;SHT31;51087;55.718;21.122;2022-08-25T12:54:36;34.19;48.49
64499;SHT31;51087;55.718;21.122;2022-08-25T12:57:18;35.46;46.42
64499;SHT31;51087;55.718;21.122;2022-08-25T12:59:49;36.39;44.58
64499;SHT31;51087;55.718;21.122;2022-08-25T13:02:50;35.50;46.39
64499;SHT31;51087;55.718;21.122;2022-08-25T13:05:49;34.84;47.85
64499;SHT31;51087;55.718;21.122;2022-08-25T13:08:44;34.15;50.00
64499;SHT31;51087;55.718;21.122;2022-08-25T13:14:02;33.85;50.21
64499;SHT31;51087;55.718;21.122;2022-08-25T13:16:29;33.52;51.47
64499;SHT31;51087;55.718;21.122;2022-08-25T13:18:56;33.61;52.01
64499;SHT31;51087;55.718;21.122;2022-08-25T13:24:03;33.27;53.33
64499;SHT31;51087;55.718;21.122;2022-08-25T13:26:37;32.99;53.53
64499;SHT31;51087;55.718;21.122;2022-08-25T13:31:32;34.71;49.42
64499;SHT31;51087;55.718;21.122;2022-08-25T13:34:01;36.11;46.73
64499;SHT31;51087;55.718;21.122;2022-08-25T13:36:30;36.27;46.68
64499;SHT31;51087;55.718;21.122;2022-08-25T13:39:17;35.69;48.01
64499;SHT31;51087;55.718;21.122;2022-08-25T13:41:45;34.87;49.91
64499;SHT31;51087;55.718;21.122;2022-08-25T13:44:12;34.02;52.06
64499;SHT31;51087;55.718;21.122;2022-08-25T13:46:38;32.96;54.42
64499;SHT31;51087;55.718;21.122;2022-08-25T13:49:05;32.55;55.59
64499;SHT31;51087;55.718;21.122;2022-08-25T13:51:32;32.21;56.36
64499;SHT31;51087;55.718;21.122;2022-08-25T13:54:02;31.77;57.69
64499;SHT31;51087;55.718;21.122;2022-08-25T13:56:32;31.35;58.83
64499;SHT31;51087;55.718;21.122;2022-08-25T13:59:00;30.95;59.85
64499;SHT31;51087;55.718;21.122;2022-08-25T14:01:33;30.66;60.67
64499;SHT31;51087;55.718;21.122;2022-08-25T14:04:20;30.18;62.35
64499;SHT31;51087;55.718;21.122;2022-08-25T14:06:46;30.00;63.06
64499;SHT31;51087;55.718;21.122;2022-08-25T14:09:15;29.97;63.10
64499;SHT31;51087;55.718;21.122;2022-08-25T14:11:54;29.95;63.29
64499;SHT31;51087;55.718;21.122;2022-08-25T14:17:18;29.81;62.85
64499;SHT31;51087;55.718;21.122;2022-08-25T14:19:45;29.71;62.56
64499;SHT31;51087;55.718;21.122;2022-08-25T14:22:12;29.51;63.17
64499;SHT31;51087;55.718;21.122;2022-08-25T14:24:38;29.57;63.13
64499;SHT31;51087;55.718;21.122;2022-08-25T14:27:04;29.77;61.98
64499;SHT31;51087;55.718;21.122;2022-08-25T14:29:30;30.01;61.31
64499;SHT31;51087;55.718;21.122;2022-08-25T14:31:57;30.33;61.13
64499;SHT31;51087;55.718;21.122;2022-08-25T14:34:29;30.76;63.69
64499;SHT31;51087;55.718;21.122;2022-08-25T14:36:57;30.96;61.75
64499;SHT31;51087;55.718;21.122;2022-08-25T14:39:24;31.05;61.59
64499;SHT31;51087;55.718;21.122;2022-08-25T14:41:50;30.95;60.60
64499;SHT31;51087;55.718;21.122;2022-08-25T14:44:16;30.91;62.31
64499;SHT31;51087;55.718;21.122;2022-08-25T14:46:50;30.71;60.60
64499;SHT31;51087;55.718;21.122;2022-08-25T14:49:20;30.76;61.02
64499;SHT31;51087;55.718;21.122;2022-08-25T14:51:47;30.63;63.04
64499;SHT31;51087;55.718;21.122;2022-08-25T14:54:14;31.04;62.18
64499;SHT31;51087;55.718;21.122;2022-08-25T14:56:43;31.36;61.59
64499;SHT31;51087;55.718;21.122;2022-08-25T14:59:19;31.54;61.14
64499;SHT31;51087;55.718;21.122;2022-08-25T15:01:45;31.31;61.28
64499;SHT31;51087;55.718;21.122;2022-08-25T15:04:19;31.22;60.44
64499;SHT31;51087;55.718;21.122;2022-08-25T15:06:50;31.18;60.48
64499;SHT31;51087;55.718;21.122;2022-08-25T15:09:21;30.91;62.22
64499;SHT31;51087;55.718;21.122;2022-08-25T15:11:52;30.40;61.24
64499;SHT31;51087;55.718;21.122;2022-08-25T15:14:20;30.21;61.05
64499;SHT31;51087;55.718;21.122;2022-08-25T15:16:56;30.33;62.19
64499;SHT31;51087;55.718;21.122;2022-08-25T15:19:24;30.36;62.30
64499;SHT31;51087;55.718;21.122;2022-08-25T15:21:51;30.47;62.83
64499;SHT31;51087;55.718;21.122;2022-08-25T15:24:18;30.40;62.71
64499;SHT31;51087;55.718;21.122;2022-08-25T15:26:56;30.16;63.04
64499;SHT31;51087;55.718;21.122;2022-08-25T15:29:24;30.50;62.59
64499;SHT31;51087;55.718;21.122;2022-08-25T15:31:51;30.56;62.45
64499;SHT31;51087;55.718;21.122;2022-08-25T15:34:17;30.60;62.58
64499;SHT31;51087;55.718;21.122;2022-08-25T15:36:43;30.55;62.74
64499;SHT31;51087;55.718;21.122;2022-08-25T15:39:09;30.36;62.64
64499;SHT31;51087;55.718;21.122;2022-08-25T15:41:34;30.23;63.11
64499;SHT31;51087;55.718;21.122;2022-08-25T15:44:03;30.04;63.34
64499;SHT31;51087;55.718;21.122;2022-08-25T15:46:29;29.88;64.28
64499;SHT31;51087;55.718;21.122;2022-08-25T15:48:56;30.00;64.12
64499;SHT31;51087;55.718;21.122;2022-08-25T15:51:24;30.22;63.84
64499;SHT31;51087;55.718;21.122;2022-08-25T15:53:50;30.39;62.99
64499;SHT31;51087;55.718;21.122;2022-08-25T15:56:16;30.56;62.43
64499;SHT31;51087;55.718;21.122;2022-08-25T15:58:44;30.76;61.37
64499;SHT31;51087;55.718;21.122;2022-08-25T16:01:12;31.42;59.83
64499;SHT31;51087;55.718;21.122;2022-08-25T16:03:38;31.39;60.01
64499;SHT31;51087;55.718;21.122;2022-08-25T16:06:03;31.35;59.60
64499;SHT31;51087;55.718;21.122;2022-08-25T16:08:29;31.38;59.67
64499;SHT31;51087;55.718;21.122;2022-08-25T16:10:54;30.96;60.71
64499;SHT31;51087;55.718;21.122;2022-08-25T16:13:20;30.90;61.54
64499;SHT31;51087;55.718;21.122;2022-08-25T16:15:48;30.33;62.39
64499;SHT31;51087;55.718;21.122;2022-08-25T16:18:13;30.12;63.21
64499;SHT31;51087;55.718;21.122;2022-08-25T16:20:42;29.89;63.62
64499;SHT31;51087;55.718;21.122;2022-08-25T16:23:08;29.65;64.41
64499;SHT31;51087;55.718;21.122;2022-08-25T16:25:39;29.58;64.56
64499;SHT31;51087;55.718;21.122;2022-08-25T16:28:04;29.37;64.94
64499;SHT31;51087;55.718;21.122;2022-08-25T16:30:30;29.10;65.58
64499;SHT31;51087;55.718;21.122;2022-08-25T16:32:55;29.00;66.72
64499;SHT31;51087;55.718;21.122;2022-08-25T16:35:20;28.82;67.14
64499;SHT31;51087;55.718;21.122;2022-08-25T16:37:46;28.76;67.34
64499;SHT31;51087;55.718;21.122;2022-08-25T16:40:14;28.64;68.12
64499;SHT31;51087;55.718;21.122;2022-08-25T16:42:39;28.50;68.55
64499;SHT31;51087;55.718;21.122;2022-08-25T16:45:05;28.44;68.65
64499;SHT31;51087;55.718;21.122;2022-08-25T16:47:34;28.34;69.32
64499;SHT31;51087;55.718;21.122;2022-08-25T16:50:01;28.16;69.72
64499;SHT31;51087;55.718;21.122;2022-08-25T16:52:27;28.06;70.06
64499;SHT31;51087;55.718;21.122;2022-08-25T16:55:11;27.85;71.09
64499;SHT31;51087;55.718;21.122;2022-08-25T16:57:38;27.79;71.45
64499;SHT31;51087;55.718;21.122;2022-08-25T17:00:06;27.71;71.83
64499;SHT31;51087;55.718;21.122;2022-08-25T17:02:32;27.57;72.19
64499;SHT31;51087;55.718;21.122;2022-08-25T17:04:58;27.47;72.69
64499;SHT31;51087;55.718;21.122;2022-08-25T17:07:23;27.31;73.29
64499;SHT31;51087;55.718;21.122;2022-08-25T17:09:49;27.17;73.87
64499;SHT31;51087;55.718;21.122;2022-08-25T17:12:14;27.00;74.52
64499;SHT31;51087;55.718;21.122;2022-08-25T17:14:39;26.90;74.46
64499;SHT31;51087;55.718;21.122;2022-08-25T17:17:05;26.78;75.04
64499;SHT31;51087;55.718;21.122;2022-08-25T17:19:31;26.66;75.76
64499;SHT31;51087;55.718;21.122;2022-08-25T17:21:57;26.56;75.96
64499;SHT31;51087;55.718;21.122;2022-08-25T17:24:23;26.48;76.39
64499;SHT31;51087;55.718;21.122;2022-08-25T17:26:49;26.41;76.73